Enola, Pennsylvania
Current Conditions -  °F | °C
As of 12:56 PM on Saturday 20 Dec 2014 (Local Time) from KCXY Reporting Station
Overcast Overcast  
Wind Chill: 34°   Ceiling: 3000
Heat Index: 34°   Visibility: 10mi
Dew Point: 21°   Wind: 0mph
Humidity: 59%   Direction: NA
Pressure: 30.27"   Gusts: NA
Location:  40.29°N, 76.93°W
Report Text: KCXY 201756Z 00000KT 10SM OVC030 01/M06 A3027 RMK AO2 SLP254 T00111061 10017 21017 58013
Loading
Personal Weather Stations






























Interactive Weather Map New forecast layout! Learn more

10-Day Weather Forecast

Advertisements
Track Severe Weather on mobile